Time;durP1;ratioP1;P1;durP2;ratioP2;P2;SDS_P1;SDS_P2;PMS_P1;PMS_P2;Temp;Humidity;BMP_temperature;BMP_pressure;BME280_temperature;BME280_humidity;BME280_pressure;Samples;Min_cycle;Max_cycle;Signal;HPM_P1;HPM_P2
2023/05/25 00:01:35;;;;;;;;;;;;;;;14.91;61.94;101646.89;107145;1256;124937;-88
2023/05/25 00:04:02;;;;;;;;;;;;;;;14.90;62.05;101645.09;107525;1256;61369;-87
2023/05/25 00:06:30;;;;;;;;;;;;;;;14.87;62.13;101649.44;107510;1256;124781;-88
2023/05/25 00:08:57;;;;;;;;;;;;;;;14.86;62.17;101649.41;107343;1256;74753;-88
2023/05/25 00:11:25;;;;;;;;;;;;;;;14.84;62.24;101652.73;107301;1256;67585;-87
2023/05/25 00:13:53;;;;;;;;;;;;;;;14.82;62.28;101653.92;107058;1256;124599;-90
2023/05/25 00:16:26;;;;;;;;;;;;;;;14.79;62.33;101657.77;107133;1259;61315;-88
2023/05/25 00:19:03;;;;;;;;;;;;;;;14.75;62.50;101656.44;107188;1256;124473;-89
2023/05/25 00:21:49;;;;;;;;;;;;;;;14.71;62.64;101658.64;107315;1256;74693;-88
2023/05/25 00:24:23;;;;;;;;;;;;;;;14.68;62.76;101660.33;107110;1256;124276;-88
2023/05/25 00:26:53;;;;;;;;;;;;;;;14.65;62.87;101662.02;107160;1256;73584;-88
2023/05/25 00:29:26;;;;;;;;;;;;;;;14.62;63.10;101658.08;107391;1256;61468;-87
2023/05/25 00:32:05;;;;;;;;;;;;;;;14.60;63.30;101659.09;107238;1256;124584;-87
2023/05/25 00:34:38;;;;;;;;;;;;;;;14.58;63.43;101655.33;107399;1256;73382;-88
2023/05/25 00:37:28;;;;;;;;;;;;;;;14.57;63.60;101655.14;107187;1260;124227;-89
2023/05/25 00:40:06;;;;;;;;;;;;;;;14.53;63.69;101651.85;107389;1256;72677;-88
2023/05/25 00:42:40;;;;;;;;;;;;;;;14.48;63.94;101650.66;107317;1256;124284;-88
2023/05/25 00:45:11;;;;;;;;;;;;;;;14.43;64.13;101653.56;107498;1256;61547;-89
2023/05/25 00:47:44;;;;;;;;;;;;;;;14.37;64.33;101653.59;107444;1256;124949;-88
2023/05/25 00:50:13;;;;;;;;;;;;;;;14.32;64.51;101656.28;107339;1256;67062;-89
2023/05/25 00:52:40;;;;;;;;;;;;;;;14.27;64.65;101661.80;107297;1256;72774;-89
2023/05/25 00:55:19;;;;;;;;;;;;;;;14.22;64.88;101666.10;107007;1263;124582;-88
2023/05/25 00:57:47;;;;;;;;;;;;;;;14.17;65.05;101667.21;107158;1256;61317;-89
2023/05/25 01:00:14;;;;;;;;;;;;;;;14.11;65.33;101667.78;107072;1260;124868;-88
2023/05/25 01:02:42;;;;;;;;;;;;;;;14.06;65.63;101664.30;107274;1256;67068;-87
2023/05/25 01:05:12;;;;;;;;;;;;;;;14.04;65.78;101662.64;107190;1256;73226;-88
2023/05/25 01:07:40;;;;;;;;;;;;;;;14.00;65.98;101659.91;106975;1256;124847;-89
2023/05/25 01:10:08;;;;;;;;;;;;;;;13.98;66.15;101659.33;107154;1262;61072;-88
2023/05/25 01:12:38;;;;;;;;;;;;;;;13.96;66.27;101662.80;107529;1257;125053;-79
2023/05/25 01:15:11;;;;;;;;;;;;;;;13.94;66.50;101660.11;107560;1256;67083;-88
2023/05/25 01:17:38;;;;;;;;;;;;;;;13.94;66.61;101660.98;107442;1256;126172;-80
2023/05/25 01:20:09;;;;;;;;;;;;;;;13.94;66.84;101664.85;107434;1256;61050;-88
2023/05/25 01:22:55;;;;;;;;;;;;;;;13.93;66.90;101665.55;107272;1259;61193;-88
2023/05/25 01:25:24;;;;;;;;;;;;;;;13.93;67.03;101666.25;107178;1256;124986;-88
2023/05/25 01:28:12;;;;;;;;;;;;;;;13.90;67.19;101673.06;107095;1256;67408;-88
2023/05/25 01:30:41;;;;;;;;;;;;;;;13.88;67.25;101671.77;107194;1256;124518;-88
2023/05/25 01:33:08;;;;;;;;;;;;;;;13.87;67.39;101669.45;107227;1262;61260;-88
2023/05/25 01:35:41;;;;;;;;;;;;;;;13.85;67.44;101669.58;107264;1257;60150;-87
2023/05/25 01:38:16;;;;;;;;;;;;;;;13.84;67.73;101673.23;107293;1262;73384;-87
2023/05/25 01:40:51;;;;;;;;;;;;;;;13.82;67.72;101670.38;107259;1256;67066;-87
2023/05/25 01:43:19;;;;;;;;;;;;;;;13.82;67.83;101670.73;107202;1260;124137;-88
2023/05/25 01:49:16;;;;;;;;;;;;;;;13.78;68.04;101675.05;107074;1256;124192;-88
2023/05/25 01:51:47;;;;;;;;;;;;;;;13.75;68.20;101676.02;107417;1256;74718;-88
2023/05/25 01:54:17;;;;;;;;;;;;;;;13.73;68.31;101674.72;107228;1256;124831;-88
2023/05/25 01:56:47;;;;;;;;;;;;;;;13.72;68.39;101680.89;107032;1256;72730;-88
2023/05/25 01:59:22;;;;;;;;;;;;;;;13.72;68.62;101681.59;107189;1256;62187;-89
2023/05/25 02:01:55;;;;;;;;;;;;;;;13.72;68.67;101684.74;107281;1256;124463;-89
2023/05/25 02:04:28;;;;;;;;;;;;;;;13.72;68.77;101686.33;107379;1256;73335;-88
2023/05/25 02:06:56;;;;;;;;;;;;;;;13.70;68.83;101686.09;107279;1256;125626;-88
2023/05/25 02:09:25;;;;;;;;;;;;;;;13.70;68.93;101688.04;107416;1256;73152;-88
2023/05/25 02:12:03;;;;;;;;;;;;;;;13.69;69.02;101687.85;107309;1256;125649;-88
2023/05/25 02:14:44;;;;;;;;;;;;;;;13.69;69.12;101690.30;107504;1257;60021;-87
2023/05/25 02:17:18;;;;;;;;;;;;;;;13.69;69.25;101687.14;107453;1256;73742;-88
2023/05/25 02:19:48;;;;;;;;;;;;;;;13.71;69.32;101686.48;107304;1256;125726;-88
2023/05/25 02:22:16;;;;;;;;;;;;;;;13.72;69.41;101685.98;107266;1256;73276;-88
2023/05/25 02:24:43;;;;;;;;;;;;;;;13.73;69.25;101687.59;107056;1257;124774;-89
2023/05/25 02:27:11;;;;;;;;;;;;;;;13.74;69.33;101686.05;107234;1256;62571;-88
2023/05/25 02:29:46;;;;;;;;;;;;;;;13.76;69.31;101684.70;107243;1256;75428;-88
2023/05/25 02:32:25;;;;;;;;;;;;;;;13.76;69.27;101681.88;107273;1259;67437;-89
2023/05/25 02:34:52;;;;;;;;;;;;;;;13.77;69.31;101680.83;106913;1256;73350;-88
2023/05/25 02:37:25;;;;;;;;;;;;;;;13.79;69.26;101680.01;106870;1256;124907;-89
2023/05/25 02:39:58;;;;;;;;;;;;;;;13.79;69.28;101678.45;107080;1256;61208;-88
2023/05/25 02:42:26;;;;;;;;;;;;;;;13.80;69.31;101682.33;106910;1256;125158;-88
2023/05/25 02:44:59;;;;;;;;;;;;;;;13.79;69.15;101683.20;107063;1256;65737;-87
2023/05/25 02:47:26;;;;;;;;;;;;;;;13.79;69.25;101685.14;107207;1256;73266;-88
2023/05/25 02:49:53;;;;;;;;;;;;;;;13.82;69.31;101686.59;107046;1257;124330;-88
2023/05/25 02:52:32;;;;;;;;;;;;;;;13.86;69.27;101686.36;107244;1257;61053;-88
2023/05/25 02:55:02;;;;;;;;;;;;;;;13.90;69.15;101686.63;107096;1258;124080;-87
2023/05/25 02:57:41;;;;;;;;;;;;;;;13.91;69.12;101688.61;107256;1256;65701;-86
2023/05/25 03:00:11;;;;;;;;;;;;;;;13.93;69.09;101687.09;107289;1256;124349;-87
2023/05/25 03:02:37;;;;;;;;;;;;;;;13.94;69.13;101686.23;107303;1260;61195;-86
2023/05/25 03:05:06;;;;;;;;;;;;;;;13.94;69.17;101684.27;107053;1256;61358;-87
2023/05/25 03:10:58;;;;;;;;;;;;;;;13.97;69.15;101684.34;107153;1256;64811;-88
2023/05/25 03:13:28;;;;;;;;;;;;;;;13.98;69.06;101679.80;107171;1256;124058;-88
2023/05/25 03:16:01;;;;;;;;;;;;;;;14.01;69.09;101675.27;107210;1256;61277;-89
2023/05/25 03:18:47;;;;;;;;;;;;;;;14.04;69.13;101674.48;106931;1256;124289;-88
2023/05/25 03:21:24;;;;;;;;;;;;;;;14.08;69.22;101675.64;107138;1256;72435;-88
2023/05/25 03:23:51;;;;;;;;;;;;;;;14.12;69.16;101677.33;107292;1256;124468;-87
2023/05/25 03:26:31;;;;;;;;;;;;;;;14.17;69.12;101674.82;107436;1256;71860;-87
2023/05/25 03:28:58;;;;;;;;;;;;;;;14.24;69.10;101676.38;107486;1256;60880;-88
2023/05/25 03:31:44;;;;;;;;;;;;;;;14.33;69.11;101674.66;107317;1256;124296;-88
2023/05/25 03:34:25;;;;;;;;;;;;;;;14.63;69.74;101669.73;107162;1257;73405;-91
2023/05/25 03:36:59;;;;;;;;;;;;;;;15.55;70.61;101669.75;106971;1256;124254;-90
2023/05/25 03:39:28;;;;;;;;;;;;;;;16.62;70.13;101670.17;107116;1262;71920;-91
2023/05/25 03:41:56;;;;;;;;;;;;;;;17.65;69.07;101668.30;107161;1256;124506;-90
2023/05/25 03:44:32;;;;;;;;;;;;;;;18.65;67.90;101664.58;107020;1256;62173;-89
2023/05/25 03:47:17;;;;;;;;;;;;;;;19.48;65.98;101665.16;107156;1256;74683;-88
2023/05/25 03:52:39;;;;;;;;;;;;;;;21.38;63.35;101669.48;107166;1256;72780;-86
2023/05/25 03:55:09;;;;;;;;;;;;;;;22.32;62.05;101673.31;107185;1256;125612;-87
2023/05/25 03:57:42;;;;;;;;;;;;;;;23.16;60.55;101672.27;107293;1256;61251;-88
2023/05/25 04:00:09;;;;;;;;;;;;;;;23.97;59.11;101675.63;107441;1256;125213;-88
2023/05/25 04:02:36;;;;;;;;;;;;;;;24.68;57.61;101674.98;107700;1262;67364;-85
2023/05/25 04:05:04;;;;;;;;;;;;;;;25.39;56.22;101683.98;107679;1260;72941;-84
2023/05/25 04:07:31;;;;;;;;;;;;;;;26.06;54.83;101687.12;107114;1258;125220;-87
2023/05/25 04:09:58;;;;;;;;;;;;;;;26.61;53.43;101688.08;107320;1259;59896;-85
2023/05/25 04:12:26;;;;;;;;;;;;;;;27.21;52.45;101681.54;107249;1256;124946;-86
2023/05/25 04:14:53;;;;;;;;;;;;;;;27.72;50.92;101680.19;107413;1258;65896;-86
2023/05/25 04:17:23;;;;;;;;;;;;;;;28.11;49.74;101672.27;107218;1258;73042;-87
2023/05/25 04:19:53;;;;;;;;;;;;;;;28.54;48.99;101669.70;107346;1256;124613;-87
2023/05/25 04:22:20;;;;;;;;;;;;;;;29.16;48.04;101669.27;107317;1256;61298;-85
2023/05/25 04:24:48;;;;;;;;;;;;;;;29.75;47.07;101671.87;107413;1256;124399;-86
2023/05/25 04:27:19;;;;;;;;;;;;;;;30.32;46.15;101672.56;107746;1256;61269;-86
2023/05/25 04:29:45;;;;;;;;;;;;;;;31.03;45.22;101670.00;107462;1256;124817;-85
2023/05/25 04:32:16;;;;;;;;;;;;;;;31.57;44.09;101668.17;107326;1257;60179;-87
2023/05/25 04:34:45;;;;;;;;;;;;;;;32.07;43.12;101665.75;107270;1256;61307;-87
2023/05/25 04:37:12;;;;;;;;;;;;;;;32.52;42.00;101666.36;107379;1257;124363;-84
2023/05/25 04:39:41;;;;;;;;;;;;;;;32.89;41.06;101667.27;107684;1256;62058;-85
2023/05/25 04:42:11;;;;;;;;;;;;;;;33.27;40.23;101671.20;107278;1256;124890;-88
2023/05/25 04:44:45;;;;;;;;;;;;;;;33.66;39.56;101679.61;107572;1256;61064;-89
2023/05/25 04:47:15;;;;;;;;;;;;;;;34.01;38.60;101683.55;107040;1256;62277;-85
2023/05/25 04:49:42;;;;;;;;;;;;;;;34.16;37.79;101677.59;107044;1256;124268;-87
2023/05/25 04:52:15;;;;;;;;;;;;;;;34.29;37.28;101670.42;107221;1257;61785;-91
2023/05/25 04:54:42;;;;;;;;;;;;;;;34.60;36.93;101672.02;107216;1256;124435;-86
2023/05/25 04:57:09;;;;;;;;;;;;;;;34.92;36.04;101669.70;107338;1258;60342;-91
2023/05/25 04:59:36;;;;;;;;;;;;;;;35.15;35.58;101672.45;107377;1256;61171;-91
2023/05/25 05:02:03;;;;;;;;;;;;;;;35.36;35.09;101676.59;107040;1256;125015;-91
2023/05/25 05:05:03;;;;;;;;;;;;;;;35.50;34.78;101676.77;107113;1256;62131;-89
2023/05/25 05:10:35;;;;;;;;;;;;;;;35.85;33.64;101680.51;107412;1256;62209;-85
2023/05/25 05:13:04;;;;;;;;;;;;;;;35.82;33.15;101678.16;107208;1259;124093;-89
2023/05/25 05:15:31;;;;;;;;;;;;;;;35.87;33.24;101675.23;107213;1256;66607;-88
2023/05/25 05:17:58;;;;;;;;;;;;;;;36.18;32.64;101678.33;107223;1256;124505;-87
2023/05/25 05:20:25;;;;;;;;;;;;;;;36.18;32.18;101681.57;107058;1256;62761;-88
2023/05/25 05:22:58;;;;;;;;;;;;;;;36.03;31.72;101683.15;107411;1256;61240;-88
2023/05/25 05:25:31;;;;;;;;;;;;;;;35.49;31.55;101679.95;107044;1256;124272;-87
2023/05/25 05:28:07;;;;;;;;;;;;;;;35.42;31.62;101678.37;107059;1257;66784;-90
2023/05/25 05:30:46;;;;;;;;;;;;;;;35.48;31.32;101674.71;106986;1256;124167;-88
2023/05/25 05:33:34;;;;;;;;;;;;;;;35.61;31.43;101672.93;107268;1258;64084;-88
2023/05/25 05:36:11;;;;;;;;;;;;;;;35.04;30.58;101670.40;107231;1256;124326;-88
2023/05/25 05:41:27;;;;;;;;;;;;;;;31.28;31.60;101671.48;107109;1256;66141;-88
2023/05/25 05:44:08;;;;;;;;;;;;;;;29.62;32.61;101678.85;107056;1260;123956;-88
2023/05/25 05:46:36;;;;;;;;;;;;;;;28.07;33.64;101681.73;107273;1257;72687;-88
2023/05/25 05:49:03;;;;;;;;;;;;;;;26.72;34.65;101686.85;107071;1262;124918;-90
2023/05/25 05:51:31;;;;;;;;;;;;;;;25.72;35.98;101682.89;107319;1256;62076;-88
2023/05/25 05:54:00;;;;;;;;;;;;;;;24.93;36.87;101683.48;106892;1258;124325;-87
2023/05/25 05:56:29;;;;;;;;;;;;;;;24.16;38.05;101683.59;107055;1256;67576;-88
2023/05/25 05:58:56;;;;;;;;;;;;;;;23.65;39.04;101689.02;107177;1256;71382;-89
2023/05/25 06:01:25;;;;;;;;;;;;;;;23.25;39.90;101690.44;106981;1256;124943;-88
2023/05/25 06:03:53;;;;;;;;;;;;;;;22.97;40.63;101701.31;107215;1256;60909;-88
2023/05/25 06:06:24;;;;;;;;;;;;;;;22.63;41.20;101703.99;107090;1256;124406;-86
2023/05/25 06:09:05;;;;;;;;;;;;;;;22.40;41.85;101703.13;107106;1258;67022;-89
2023/05/25 06:11:34;;;;;;;;;;;;;;;22.28;42.51;101711.63;107261;1256;71432;-90
2023/05/25 06:14:06;;;;;;;;;;;;;;;22.17;42.90;101715.63;107596;1256;124127;-90
2023/05/25 06:16:33;;;;;;;;;;;;;;;21.94;43.13;101712.74;107876;1260;60217;-82
2023/05/25 06:19:00;;;;;;;;;;;;;;;21.82;43.64;101714.08;107190;1256;124114;-82
2023/05/25 06:21:29;;;;;;;;;;;;;;;21.74;43.93;101715.39;107402;1258;67635;-81
2023/05/25 06:23:59;;;;;;;;;;;;;;;21.66;44.32;101717.39;107602;1256;124311;-89
2023/05/25 06:26:26;;;;;;;;;;;;;;;21.56;44.62;101719.05;107217;1256;61084;-89
2023/05/25 06:28:59;;;;;;;;;;;;;;;21.61;44.98;101717.42;107532;1256;61269;-89
2023/05/25 06:31:26;;;;;;;;;;;;;;;21.63;45.00;101723.30;107129;1256;124110;-89
2023/05/25 06:33:53;;;;;;;;;;;;;;;21.59;45.17;101720.83;107392;1256;65916;-88
2023/05/25 06:36:26;;;;;;;;;;;;;;;21.53;45.39;101721.04;107306;1257;124930;-87
2023/05/25 06:38:59;;;;;;;;;;;;;;;21.54;45.75;101723.70;107201;1260;61122;-88
2023/05/25 06:41:29;;;;;;;;;;;;;;;21.61;45.91;101723.12;107247;1260;62127;-88
2023/05/25 06:43:56;;;;;;;;;;;;;;;21.69;46.05;101728.45;107340;1257;124754;-88
2023/05/25 06:46:23;;;;;;;;;;;;;;;21.66;45.87;101729.89;107481;1257;65880;-89
2023/05/25 06:48:51;;;;;;;;;;;;;;;21.55;45.98;101736.04;107236;1256;124155;-89
2023/05/25 06:51:27;;;;;;;;;;;;;;;21.39;46.17;101736.41;107462;1257;61372;-88
2023/05/25 06:54:14;;;;;;;;;;;;;;;21.37;46.37;101731.08;107027;1256;124413;-87
2023/05/25 06:56:41;;;;;;;;;;;;;;;21.36;46.54;101735.20;107222;1257;73892;-87
2023/05/25 06:59:07;;;;;;;;;;;;;;;21.40;46.79;101738.20;107238;1260;65509;-87
2023/05/25 07:01:42;;;;;;;;;;;;;;;21.40;46.61;101736.41;107085;1256;124551;-87
2023/05/25 07:04:09;;;;;;;;;;;;;;;21.31;46.78;101737.35;107376;1256;62475;-89
2023/05/25 07:06:36;;;;;;;;;;;;;;;21.22;47.05;101734.88;107186;1256;124253;-89
2023/05/25 07:09:04;;;;;;;;;;;;;;;21.24;47.28;101734.69;107308;1260;73890;-88
2023/05/25 07:11:30;;;;;;;;;;;;;;;21.29;47.42;101738.06;107154;1261;67254;-91
2023/05/25 07:13:58;;;;;;;;;;;;;;;21.28;47.34;101740.75;107104;1258;124270;-91
2023/05/25 07:16:39;;;;;;;;;;;;;;;21.24;47.44;101735.77;107105;1257;60527;-91
2023/05/25 07:19:13;;;;;;;;;;;;;;;21.24;47.51;101735.05;107284;1256;124144;-90
2023/05/25 07:21:46;;;;;;;;;;;;;;;21.19;47.72;101730.59;107423;1257;74718;-92
2023/05/25 07:24:12;;;;;;;;;;;;;;;21.24;47.85;101735.58;106964;1261;125201;-91
2023/05/25 07:26:39;;;;;;;;;;;;;;;21.18;47.86;101736.86;107444;1256;71402;-90
2023/05/25 07:29:15;;;;;;;;;;;;;;;21.21;47.95;101738.80;107341;1256;61385;-93
2023/05/25 07:31:49;;;;;;;;;;;;;;;21.26;47.86;101742.72;107187;1257;124235;-92
2023/05/25 07:34:24;;;;;;;;;;;;;;;21.31;47.86;101744.48;107092;1257;74709;-94
2023/05/25 07:36:52;;;;;;;;;;;;;;;21.35;47.76;101743.05;107323;1261;124290;-92
2023/05/25 07:39:25;;;;;;;;;;;;;;;21.40;47.73;101747.13;107536;1256;70691;-92
2023/05/25 07:42:05;;;;;;;;;;;;;;;21.46;47.89;101752.14;107413;1256;124563;-91
2023/05/25 07:44:50;;;;;;;;;;;;;;;21.50;47.63;101755.86;107759;1256;61244;-91
2023/05/25 07:47:26;;;;;;;;;;;;;;;21.50;47.43;101757.11;107749;1261;73416;-93
2023/05/25 07:50:23;;;;;;;;;;;;;;;21.45;47.30;101764.98;107251;1256;124159;-92
2023/05/25 07:52:50;;;;;;;;;;;;;;;21.44;47.63;101761.41;107334;1257;72723;-92
2023/05/25 07:55:27;;;;;;;;;;;;;;;21.52;47.49;101771.40;107233;1261;124220;-92
2023/05/25 07:58:02;;;;;;;;;;;;;;;21.48;47.26;101768.02;107576;1262;61312;-90
2023/05/25 08:00:36;;;;;;;;;;;;;;;21.45;47.44;101773.74;107560;1257;123640;-91
2023/05/25 08:03:03;;;;;;;;;;;;;;;21.50;47.41;101775.34;107716;1256;65494;-93
2023/05/25 08:05:30;;;;;;;;;;;;;;;21.56;47.29;101777.63;107514;1260;73707;-92
2023/05/25 08:07:59;;;;;;;;;;;;;;;21.62;47.15;101779.75;107582;1260;125105;-93
2023/05/25 08:10:33;;;;;;;;;;;;;;;21.58;47.15;101778.34;107699;1257;61340;-92
2023/05/25 08:13:00;;;;;;;;;;;;;;;21.63;47.13;101779.92;107715;1257;124785;-92
2023/05/25 08:15:35;;;;;;;;;;;;;;;21.67;47.23;101777.04;107596;1257;66879;-91
2023/05/25 08:18:03;;;;;;;;;;;;;;;21.73;47.21;101778.27;107311;1257;124452;-92
2023/05/25 08:20:35;;;;;;;;;;;;;;;21.73;47.10;101781.84;107356;1257;59959;-92
2023/05/25 08:23:14;;;;;;;;;;;;;;;21.67;47.08;101783.31;107130;1256;61336;-92
2023/05/25 08:25:44;;;;;;;;;;;;;;;21.65;47.26;101779.20;106972;1262;124592;-93
2023/05/25 08:28:11;;;;;;;;;;;;;;;21.84;47.49;101780.00;107426;1258;67002;-92
2023/05/25 08:30:40;;;;;;;;;;;;;;;22.15;47.69;101789.31;107293;1261;126732;-91
2023/05/25 08:33:15;;;;;;;;;;;;;;;22.48;47.46;101793.56;107481;1262;59960;-91
2023/05/25 08:35:52;;;;;;;;;;;;;;;22.74;47.08;101794.79;107585;1258;61108;-91
2023/05/25 08:38:25;;;;;;;;;;;;;;;23.03;46.97;101790.41;107522;1258;74752;-91
2023/05/25 08:41:13;;;;;;;;;;;;;;;23.27;46.38;101794.82;107449;1257;67608;-90
2023/05/25 08:43:40;;;;;;;;;;;;;;;23.51;46.13;101797.06;107521;1256;124826;-91
2023/05/25 08:46:07;;;;;;;;;;;;;;;23.70;45.82;101794.13;107561;1257;60880;-91
2023/05/25 08:48:35;;;;;;;;;;;;;;;23.83;45.71;101796.48;107445;1262;124502;-91
2023/05/25 08:51:15;;;;;;;;;;;;;;;23.80;45.32;101796.52;107279;1260;74613;-92
2023/05/25 08:53:48;;;;;;;;;;;;;;;23.62;44.97;101797.09;107258;1257;65548;-91
2023/05/25 08:56:19;;;;;;;;;;;;;;;23.37;45.06;101796.14;107167;1257;72877;-91
2023/05/25 08:58:51;;;;;;;;;;;;;;;23.31;45.16;101797.46;107357;1256;59245;-91
2023/05/25 09:01:29;;;;;;;;;;;;;;;23.19;44.96;101799.02;107156;1256;124133;-91
2023/05/25 09:03:56;;;;;;;;;;;;;;;23.17;45.04;101799.41;107314;1257;73340;-91
2023/05/25 09:06:28;;;;;;;;;;;;;;;23.28;44.88;101798.56;107047;1263;124514;-93
2023/05/25 09:08:57;;;;;;;;;;;;;;;23.55;44.67;101805.96;107321;1257;72953;-91
2023/05/25 09:11:25;;;;;;;;;;;;;;;23.76;44.53;101805.17;107331;1260;59890;-92
2023/05/25 09:13:52;;;;;;;;;;;;;;;23.97;44.01;101810.81;107495;1260;124121;-91
2023/05/25 09:16:19;;;;;;;;;;;;;;;24.00;43.67;101814.73;107453;1257;73396;-91
2023/05/25 09:18:51;;;;;;;;;;;;;;;23.93;43.56;101810.52;107331;1257;124146;-92
2023/05/25 09:21:25;;;;;;;;;;;;;;;23.81;43.36;101816.77;107244;1258;73572;-92
2023/05/25 09:23:53;;;;;;;;;;;;;;;23.71;43.46;101818.31;107174;1258;123663;-91
2023/05/25 09:26:20;;;;;;;;;;;;;;;23.68;43.40;101821.20;107338;1263;61162;-92
2023/05/25 09:29:06;;;;;;;;;;;;;;;23.61;43.30;101822.19;107482;1261;74690;-92
2023/05/25 09:31:36;;;;;;;;;;;;;;;23.50;43.21;101825.19;107428;1256;124179;-92
2023/05/25 09:34:03;;;;;;;;;;;;;;;23.33;43.30;101821.45;107258;1257;72739;-91
2023/05/25 09:36:31;;;;;;;;;;;;;;;23.20;43.34;101821.77;108080;1257;123213;-92
2023/05/25 09:39:00;;;;;;;;;;;;;;;23.14;43.46;101819.67;108547;1256;61212;-91
2023/05/25 09:41:28;;;;;;;;;;;;;;;23.29;43.68;101825.42;107122;1258;235638;-92
2023/05/25 09:43:57;;;;;;;;;;;;;;;23.56;43.74;101824.77;107297;1260;124504;-92
2023/05/25 09:46:25;;;;;;;;;;;;;;;23.73;43.50;101820.25;107297;1257;71373;-92
2023/05/25 09:48:52;;;;;;;;;;;;;;;23.85;43.29;101815.83;107050;1256;124357;-92
2023/05/25 09:51:23;;;;;;;;;;;;;;;23.75;43.08;101812.17;107249;1257;59775;-92
2023/05/25 09:53:56;;;;;;;;;;;;;;;23.51;43.21;101812.27;107329;1256;75233;-91
2023/05/25 09:56:35;;;;;;;;;;;;;;;23.46;43.58;101814.13;107185;1256;65921;-91
2023/05/25 09:59:14;;;;;;;;;;;;;;;23.33;43.49;101814.45;107233;1260;71311;-91
2023/05/25 10:01:43;;;;;;;;;;;;;;;23.22;43.76;101816.73;106906;1258;124204;-90
2023/05/25 10:04:10;;;;;;;;;;;;;;;23.23;43.78;101813.14;107277;1261;60485;-90
2023/05/25 10:06:41;;;;;;;;;;;;;;;23.32;43.95;101812.86;107106;1258;124419;-91
2023/05/25 10:09:15;;;;;;;;;;;;;;;23.38;43.78;101804.91;107099;1257;67157;-92
2023/05/25 10:11:50;;;;;;;;;;;;;;;23.28;44.02;101804.13;107120;1257;72766;-92
2023/05/25 10:14:19;;;;;;;;;;;;;;;23.28;44.37;101807.52;107108;1258;124226;-92
2023/05/25 10:16:59;;;;;;;;;;;;;;;23.35;44.24;101807.45;107361;1258;60513;-92
2023/05/25 10:19:54;;;;;;;;;;;;;;;23.43;44.05;101809.14;107039;1258;124143;-91
2023/05/25 10:22:21;;;;;;;;;;;;;;;23.51;43.88;101810.30;107397;1257;66368;-92
2023/05/25 10:25:07;;;;;;;;;;;;;;;23.60;43.84;101810.37;107474;1258;124821;-91
2023/05/25 10:27:47;;;;;;;;;;;;;;;23.76;43.82;101805.89;107435;1257;59987;-91
2023/05/25 10:30:15;;;;;;;;;;;;;;;23.96;43.74;101803.86;107459;1257;124232;-91
2023/05/25 10:32:42;;;;;;;;;;;;;;;24.05;43.56;101805.52;107456;1263;74765;-91
2023/05/25 10:35:09;;;;;;;;;;;;;;;24.06;43.20;101804.08;107550;1263;65947;-91
2023/05/25 10:37:36;;;;;;;;;;;;;;;24.06;43.11;101809.45;107391;1259;124606;-92
2023/05/25 10:40:05;;;;;;;;;;;;;;;24.04;43.17;101801.05;107549;1257;61363;-91
2023/05/25 10:42:38;;;;;;;;;;;;;;;24.15;43.39;101798.73;107414;1256;124543;-91
2023/05/25 10:45:13;;;;;;;;;;;;;;;24.33;43.37;101797.73;107522;1257;73365;-91
2023/05/25 10:47:49;;;;;;;;;;;;;;;24.50;43.08;101798.02;107423;1257;65740;-92
2023/05/25 10:50:25;;;;;;;;;;;;;;;24.68;42.99;101802.23;107172;1257;124592;-90
2023/05/25 10:53:15;;;;;;;;;;;;;;;24.83;42.72;101806.46;107465;1256;61699;-92
2023/05/25 10:55:48;;;;;;;;;;;;;;;24.99;42.47;101800.27;107537;1257;124678;-92
2023/05/25 10:58:17;;;;;;;;;;;;;;;25.17;42.33;101802.98;107568;1257;73375;-92
2023/05/25 11:01:17;;;;;;;;;;;;;;;25.38;42.15;101797.58;107496;1257;124014;-92
2023/05/25 11:04:05;;;;;;;;;;;;;;;25.56;41.82;101793.95;107493;1257;72579;-92
2023/05/25 11:06:36;;;;;;;;;;;;;;;25.76;41.63;101796.06;107232;1256;124369;-92
2023/05/25 11:09:23;;;;;;;;;;;;;;;25.94;41.73;101794.42;107130;1257;61046;-92
2023/05/25 11:11:55;;;;;;;;;;;;;;;26.19;41.40;101801.23;107051;1257;74426;-92
2023/05/25 11:14:24;;;;;;;;;;;;;;;26.31;41.16;101801.50;107298;1256;65631;-92
2023/05/25 11:17:12;;;;;;;;;;;;;;;26.45;40.79;101800.23;107223;1257;72134;-92
2023/05/25 11:19:49;;;;;;;;;;;;;;;26.67;40.56;101801.89;107012;1257;124664;-91
2023/05/25 11:22:34;;;;;;;;;;;;;;;26.82;40.32;101802.05;107338;1256;61362;-90
2023/05/25 11:25:01;;;;;;;;;;;;;;;27.09;40.05;101798.28;106837;1256;124313;-91
2023/05/25 11:27:30;;;;;;;;;;;;;;;27.31;39.76;101800.38;107251;1257;67562;-89
2023/05/25 11:29:58;;;;;;;;;;;;;;;27.33;39.30;101804.85;107338;1257;124607;-82
2023/05/25 11:32:25;;;;;;;;;;;;;;;27.27;39.24;101810.42;107516;1257;61318;-90
2023/05/25 11:34:52;;;;;;;;;;;;;;;27.06;38.87;101801.94;107345;1256;60789;-90
2023/05/25 11:37:23;;;;;;;;;;;;;;;26.90;38.87;101807.96;107120;1257;124800;-82
2023/05/25 11:39:51;;;;;;;;;;;;;;;26.89;39.13;101804.23;107929;1257;67415;-91
2023/05/25 11:42:19;;;;;;;;;;;;;;;27.04;39.17;101802.57;107310;1259;124262;-83
2023/05/25 11:44:52;;;;;;;;;;;;;;;27.15;39.34;101806.05;107684;1260;61371;-92
2023/05/25 11:47:27;;;;;;;;;;;;;;;27.13;38.79;101808.25;107348;1257;61321;-90
2023/05/25 11:49:55;;;;;;;;;;;;;;;27.03;38.66;101804.55;107264;1257;124396;-90
2023/05/25 11:52:29;;;;;;;;;;;;;;;27.00;38.70;101806.65;107271;1261;67579;-90
2023/05/25 11:55:08;;;;;;;;;;;;;;;27.04;38.79;101804.71;107291;1257;125094;-90
2023/05/25 11:57:44;;;;;;;;;;;;;;;27.01;38.71;101807.86;107319;1257;61298;-91
2023/05/25 12:00:23;;;;;;;;;;;;;;;26.91;38.83;101817.68;107506;1257;124297;-90
2023/05/25 12:02:56;;;;;;;;;;;;;;;26.88;38.78;101813.97;107321;1257;75152;-90
2023/05/25 12:05:23;;;;;;;;;;;;;;;26.84;38.74;101814.98;107495;1257;66811;-92
2023/05/25 12:07:51;;;;;;;;;;;;;;;26.87;38.70;101813.27;107153;1259;124245;-91
2023/05/25 12:10:18;;;;;;;;;;;;;;;26.90;38.66;101812.48;107223;1260;61199;-91
2023/05/25 12:12:57;;;;;;;;;;;;;;;26.95;38.60;101812.14;107330;1257;124282;-91
2023/05/25 12:15:43;;;;;;;;;;;;;;;27.00;38.42;101810.23;107510;1258;75250;-91
2023/05/25 12:18:12;;;;;;;;;;;;;;;27.08;38.15;101803.34;107352;1256;124399;-91
2023/05/25 12:20:42;;;;;;;;;;;;;;;27.07;38.11;101806.80;107319;1257;72689;-91
2023/05/25 12:23:09;;;;;;;;;;;;;;;27.01;38.05;101801.02;107484;1257;61150;-91
2023/05/25 12:25:36;;;;;;;;;;;;;;;26.97;38.06;101800.59;107225;1257;124125;-91
2023/05/25 12:28:11;;;;;;;;;;;;;;;26.82;38.14;101805.99;107284;1257;74638;-92
2023/05/25 12:30:39;;;;;;;;;;;;;;;26.62;38.19;101809.56;107319;1256;124252;-91
2023/05/25 12:33:20;;;;;;;;;;;;;;;26.30;38.39;101812.31;107326;1256;72891;-92
2023/05/25 12:35:54;;;;;;;;;;;;;;;25.91;38.65;101813.00;107425;1258;60467;-92
2023/05/25 12:38:22;;;;;;;;;;;;;;;25.48;38.71;101815.33;107531;1257;61404;-91
2023/05/25 12:41:09;;;;;;;;;;;;;;;25.04;39.25;101815.06;107576;1256;74708;-91
2023/05/25 12:43:38;;;;;;;;;;;;;;;24.67;39.98;101816.61;107486;1256;124093;-91
2023/05/25 12:46:07;;;;;;;;;;;;;;;24.30;40.05;101822.36;107437;1258;71397;-91
2023/05/25 12:48:34;;;;;;;;;;;;;;;24.02;40.51;101821.88;107191;1258;124813;-90
2023/05/25 12:51:03;;;;;;;;;;;;;;;23.87;40.85;101821.89;107348;1258;60107;-91
2023/05/25 12:53:32;;;;;;;;;;;;;;;23.73;41.01;101822.59;107546;1257;74658;-91
2023/05/25 12:56:14;;;;;;;;;;;;;;;23.58;41.29;101824.39;107313;1257;124328;-91
2023/05/25 12:58:41;;;;;;;;;;;;;;;23.41;42.24;101822.78;107309;1256;72602;-90
2023/05/25 13:01:11;;;;;;;;;;;;;;;23.33;42.73;101821.61;107176;1257;124069;-82
2023/05/25 13:03:38;;;;;;;;;;;;;;;23.20;43.17;101820.15;107632;1256;60172;-83